Time;durP1;ratioP1;P1;durP2;ratioP2;P2;SDS_P1;SDS_P2;PMS_P1;PMS_P2;Temp;Humidity;BMP_temperature;BMP_pressure;BME280_temperature;BME280_humidity;BME280_pressure;Samples;Min_cycle;Max_cycle;Signal;HPM_P1;HPM_P2
2021/06/13 00:01:19;;;;;;;7.65;2.45;;;;;;;;;;5023298;28;20022;-67
2021/06/13 00:03:45;;;;;;;5.28;2.60;;;;;;;;;;5026964;28;20044;-68
2021/06/13 00:06:10;;;;;;;7.78;2.30;;;;;;;;;;5029145;28;20105;-68
2021/06/13 00:08:36;;;;;;;10.15;2.75;;;;;;;;;;5030307;28;20064;-67
2021/06/13 00:11:02;;;;;;;5.20;2.50;;;;;;;;;;5031945;28;20025;-70
2021/06/13 00:13:28;;;;;;;9.20;3.15;;;;;;;;;;5031570;28;20036;-68
2021/06/13 00:15:54;;;;;;;11.13;2.83;;;;;;;;;;5030434;28;20025;-70
2021/06/13 00:18:20;;;;;;;5.22;2.53;;;;;;;;;;5031492;28;20534;-67
2021/06/13 00:20:47;;;;;;;8.65;2.35;;;;;;;;;;5030559;28;20025;-69
2021/06/13 00:23:13;;;;;;;10.30;2.20;;;;;;;;;;5031699;28;20415;-68
2021/06/13 00:25:42;;;;;;;8.27;2.50;;;;;;;;;;5030363;28;20022;-66
2021/06/13 00:28:08;;;;;;;10.43;2.65;;;;;;;;;;5031319;28;20037;-69
2021/06/13 00:30:34;;;;;;;8.02;2.17;;;;;;;;;;5025476;28;20105;-66
2021/06/13 00:33:00;;;;;;;5.55;2.08;;;;;;;;;;5031419;28;20064;-67
2021/06/13 00:35:26;;;;;;;5.43;2.53;;;;;;;;;;5031336;28;20475;-67
2021/06/13 00:37:52;;;;;;;7.80;2.80;;;;;;;;;;5029970;28;20036;-67
2021/06/13 00:40:19;;;;;;;5.93;2.55;;;;;;;;;;5031454;28;20025;-69
2021/06/13 00:42:45;;;;;;;5.75;2.35;;;;;;;;;;5030310;28;20136;-68
2021/06/13 00:45:11;;;;;;;6.10;2.00;;;;;;;;;;5030257;28;20109;-68
2021/06/13 00:47:38;;;;;;;8.02;2.20;;;;;;;;;;5031059;28;20060;-65
2021/06/13 00:50:05;;;;;;;7.32;2.33;;;;;;;;;;5045915;28;20036;-67
2021/06/13 00:52:31;;;;;;;7.72;2.65;;;;;;;;;;5031347;28;20021;-68
2021/06/13 00:54:57;;;;;;;7.50;2.30;;;;;;;;;;5031373;28;20045;-68
2021/06/13 00:57:23;;;;;;;4.10;2.22;;;;;;;;;;5030668;28;20032;-67
2021/06/13 00:59:49;;;;;;;6.45;2.60;;;;;;;;;;5031376;28;20022;-67
2021/06/13 01:02:15;;;;;;;8.98;2.95;;;;;;;;;;5031230;28;20028;-66
2021/06/13 01:04:41;;;;;;;9.75;2.38;;;;;;;;;;5031432;28;20026;-67
2021/06/13 01:07:10;;;;;;;14.95;3.55;;;;;;;;;;5030923;28;20340;-68
2021/06/13 01:09:39;;;;;;;6.53;2.83;;;;;;;;;;5000114;28;20038;-66
2021/06/13 01:12:31;;;;;;;8.15;3.10;;;;;;;;;;5028777;28;20029;-67
2021/06/13 01:15:06;;;;;;;5.47;2.72;;;;;;;;;;5028573;28;20037;-68
2021/06/13 01:17:34;;;;;;;10.02;2.67;;;;;;;;;;5030726;28;20120;-68
2021/06/13 01:20:09;;;;;;;8.43;3.20;;;;;;;;;;5031330;28;20048;-68
2021/06/13 01:22:53;;;;;;;4.20;2.20;;;;;;;;;;5031502;28;20502;-68
2021/06/13 01:25:38;;;;;;;6.75;2.60;;;;;;;;;;5030029;28;20030;-67
2021/06/13 01:28:23;;;;;;;6.50;2.42;;;;;;;;;;5030843;28;20026;-67
2021/06/13 01:30:50;;;;;;;4.38;2.45;;;;;;;;;;5023949;28;20030;-68
2021/06/13 01:33:16;;;;;;;8.00;2.75;;;;;;;;;;5029433;28;20045;-68
2021/06/13 01:35:43;;;;;;;9.82;2.55;;;;;;;;;;5030732;28;20028;-68
2021/06/13 01:38:13;;;;;;;7.05;2.80;;;;;;;;;;5030648;28;20021;-68
2021/06/13 01:40:40;;;;;;;6.15;2.88;;;;;;;;;;5029664;28;20472;-68
2021/06/13 01:43:06;;;;;;;7.47;2.92;;;;;;;;;;5030684;28;20024;-67
2021/06/13 01:45:34;;;;;;;8.88;2.50;;;;;;;;;;5034469;28;20029;-68
2021/06/13 01:48:00;;;;;;;8.88;3.28;;;;;;;;;;5034314;28;20029;-68
2021/06/13 01:50:27;;;;;;;9.55;2.92;;;;;;;;;;5034362;28;20104;-69
2021/06/13 01:52:54;;;;;;;11.13;3.00;;;;;;;;;;5033536;28;20032;-68
2021/06/13 01:55:21;;;;;;;9.65;3.60;;;;;;;;;;5034355;28;20061;-67
2021/06/13 01:57:47;;;;;;;8.40;3.35;;;;;;;;;;5034036;28;20029;-67
2021/06/13 02:00:14;;;;;;;10.30;3.47;;;;;;;;;;5034051;28;20056;-68
2021/06/13 02:02:41;;;;;;;10.35;3.35;;;;;;;;;;5034200;28;20511;-68
2021/06/13 02:05:08;;;;;;;8.80;2.90;;;;;;;;;;5032930;28;20045;-68
2021/06/13 02:07:35;;;;;;;14.57;3.67;;;;;;;;;;5032570;28;20025;-69
2021/06/13 02:10:04;;;;;;;8.07;3.08;;;;;;;;;;5033452;28;20108;-68
2021/06/13 02:12:30;;;;;;;7.55;2.97;;;;;;;;;;5033999;28;20132;-69
2021/06/13 02:14:56;;;;;;;11.30;3.22;;;;;;;;;;5033979;28;20503;-68
2021/06/13 02:17:23;;;;;;;9.48;3.85;;;;;;;;;;5033500;28;20068;-69
2021/06/13 02:19:49;;;;;;;14.05;3.50;;;;;;;;;;5033991;28;20032;-68
2021/06/13 02:22:18;;;;;;;11.05;3.30;;;;;;;;;;5033777;28;20080;-67
2021/06/13 02:24:45;;;;;;;12.07;2.92;;;;;;;;;;5033595;28;20024;-67
2021/06/13 02:27:13;;;;;;;12.25;3.50;;;;;;;;;;5032277;28;20025;-68
2021/06/13 02:29:40;;;;;;;8.38;3.75;;;;;;;;;;5033636;28;20132;-68
2021/06/13 02:32:06;;;;;;;9.98;3.17;;;;;;;;;;5036704;28;20033;-67
2021/06/13 02:34:32;;;;;;;7.38;3.28;;;;;;;;;;5032717;28;20032;-66
2021/06/13 02:37:00;;;;;;;10.25;3.33;;;;;;;;;;5031966;28;20033;-67
2021/06/13 02:39:26;;;;;;;10.88;3.42;;;;;;;;;;5033328;28;20037;-68
2021/06/13 02:41:52;;;;;;;10.27;2.85;;;;;;;;;;5033869;28;20056;-68
2021/06/13 02:44:19;;;;;;;9.25;3.50;;;;;;;;;;5033402;28;20749;-69
2021/06/13 02:46:45;;;;;;;7.72;3.63;;;;;;;;;;5030410;28;20121;-69
2021/06/13 02:49:11;;;;;;;9.60;3.58;;;;;;;;;;5033544;28;20503;-69
2021/06/13 02:51:42;;;;;;;8.40;3.03;;;;;;;;;;5033887;28;20026;-68
2021/06/13 02:54:10;;;;;;;8.02;3.60;;;;;;;;;;5033221;28;20022;-68
2021/06/13 02:56:56;;;;;;;10.50;3.45;;;;;;;;;;5032038;28;20104;-67
2021/06/13 02:59:34;;;;;;;5.53;2.92;;;;;;;;;;5033084;28;20053;-69
2021/06/13 03:02:01;;;;;;;8.18;3.70;;;;;;;;;;5033095;28;20105;-69
2021/06/13 03:04:27;;;;;;;7.63;3.33;;;;;;;;;;5031675;28;20028;-68
2021/06/13 03:06:54;;;;;;;9.48;3.33;;;;;;;;;;5032795;28;20025;-67
2021/06/13 03:09:22;;;;;;;8.05;3.05;;;;;;;;;;5030782;28;20079;-67
2021/06/13 03:11:48;;;;;;;8.48;3.25;;;;;;;;;;5031651;28;20021;-66
2021/06/13 03:14:15;;;;;;;9.60;3.60;;;;;;;;;;5032863;28;20025;-68
2021/06/13 03:16:42;;;;;;;9.70;3.30;;;;;;;;;;5032552;28;20040;-69
2021/06/13 03:19:09;;;;;;;9.35;3.00;;;;;;;;;;5031654;28;20029;-68
2021/06/13 03:21:35;;;;;;;10.00;3.58;;;;;;;;;;5032748;28;20041;-67
2021/06/13 03:24:01;;;;;;;11.75;3.45;;;;;;;;;;5032797;28;20032;-67
2021/06/13 03:26:28;;;;;;;9.90;3.15;;;;;;;;;;5031875;28;20033;-67
2021/06/13 03:28:56;;;;;;;6.05;3.17;;;;;;;;;;5031092;28;20029;-67
2021/06/13 03:31:23;;;;;;;10.15;3.05;;;;;;;;;;5024881;28;20017;-67
2021/06/13 03:33:49;;;;;;;8.80;3.55;;;;;;;;;;5032712;28;20491;-70
2021/06/13 03:36:16;;;;;;;121.20;86.22;;;;;;;;;;5030561;28;20043;-68
2021/06/13 03:38:43;;;;;;;12.50;5.10;;;;;;;;;;5032424;28;20030;-68
2021/06/13 03:41:09;;;;;;;7.53;4.05;;;;;;;;;;5032359;28;20030;-68
2021/06/13 03:43:35;;;;;;;12.73;3.85;;;;;;;;;;5032408;28;20032;-68
2021/06/13 03:46:02;;;;;;;11.68;4.00;;;;;;;;;;5030925;28;20356;-68
2021/06/13 03:48:28;;;;;;;10.48;4.07;;;;;;;;;;5032286;28;20021;-68
2021/06/13 03:50:54;;;;;;;9.95;3.83;;;;;;;;;;5032178;28;20446;-68
2021/06/13 03:53:21;;;;;;;9.40;3.03;;;;;;;;;;5031088;28;20032;-68
2021/06/13 03:55:47;;;;;;;6.38;2.83;;;;;;;;;;5031974;28;20510;-68
2021/06/13 03:58:14;;;;;;;9.55;3.33;;;;;;;;;;5031704;28;20103;-69
2021/06/13 04:00:42;;;;;;;6.75;3.25;;;;;;;;;;5031859;28;20037;-68
2021/06/13 04:03:09;;;;;;;7.20;2.47;;;;;;;;;;5030717;28;20040;-68
2021/06/13 04:05:35;;;;;;;9.52;3.20;;;;;;;;;;5032067;28;20026;-68
2021/06/13 04:08:01;;;;;;;37.80;20.05;;;;;;;;;;5030676;28;20032;-68
2021/06/13 04:10:27;;;;;;;8.35;3.47;;;;;;;;;;5016276;28;20025;-68
2021/06/13 04:12:56;;;;;;;13.55;5.72;;;;;;;;;;5031858;28;20124;-68
2021/06/13 04:15:22;;;;;;;6.13;2.80;;;;;;;;;;5028984;28;20033;-68
2021/06/13 04:17:49;;;;;;;8.43;3.00;;;;;;;;;;5025643;28;20380;-68
2021/06/13 04:20:15;;;;;;;12.13;3.83;;;;;;;;;;5031797;28;20499;-68
2021/06/13 04:22:42;;;;;;;10.43;3.58;;;;;;;;;;5031731;28;20037;-68
2021/06/13 04:25:09;;;;;;;10.43;3.67;;;;;;;;;;5031662;28;20040;-68
2021/06/13 04:27:35;;;;;;;11.32;2.78;;;;;;;;;;5031111;28;20034;-68
2021/06/13 04:30:02;;;;;;;7.30;2.92;;;;;;;;;;5030686;28;20105;-68
2021/06/13 04:32:28;;;;;;;10.73;3.17;;;;;;;;;;5033173;28;20033;-68
2021/06/13 04:34:54;;;;;;;7.53;3.22;;;;;;;;;;5031535;28;20030;-67
2021/06/13 04:37:20;;;;;;;10.05;3.40;;;;;;;;;;5032129;28;20037;-68
2021/06/13 04:39:46;;;;;;;7.80;3.08;;;;;;;;;;5031543;28;20022;-68
2021/06/13 04:42:11;;;;;;;10.75;3.30;;;;;;;;;;5031208;28;20079;-68
2021/06/13 04:44:38;;;;;;;9.45;2.33;;;;;;;;;;5030157;28;20373;-68
2021/06/13 04:47:05;;;;;;;12.13;3.40;;;;;;;;;;5031092;28;20033;-68
2021/06/13 04:49:31;;;;;;;10.65;3.50;;;;;;;;;;5031404;28;20108;-67
2021/06/13 04:51:58;;;;;;;10.55;3.60;;;;;;;;;;5031364;28;20029;-68
2021/06/13 04:54:39;;;;;;;10.70;3.25;;;;;;;;;;5031395;28;20021;-68
2021/06/13 04:57:15;;;;;;;9.23;3.05;;;;;;;;;;5030892;28;20033;-68
2021/06/13 04:59:40;;;;;;;17.90;6.70;;;;;;;;;;5031347;28;20025;-68
2021/06/13 05:02:06;;;;;;;12.38;5.00;;;;;;;;;;5031197;28;20506;-69
2021/06/13 05:04:32;;;;;;;12.80;3.85;;;;;;;;;;5031262;28;20503;-67
2021/06/13 05:07:03;;;;;;;16.90;7.47;;;;;;;;;;5030799;28;20022;-68
2021/06/13 05:09:29;;;;;;;153.13;81.35;;;;;;;;;;5024136;28;20036;-68
2021/06/13 05:11:55;;;;;;;16.20;5.25;;;;;;;;;;5031014;28;20380;-68
2021/06/13 05:14:21;;;;;;;11.27;4.50;;;;;;;;;;5031100;28;20025;-68
2021/06/13 05:16:47;;;;;;;17.05;5.93;;;;;;;;;;5030349;28;20036;-67
2021/06/13 05:19:12;;;;;;;11.90;3.70;;;;;;;;;;5032747;28;20096;-67
2021/06/13 05:21:38;;;;;;;31.30;14.02;;;;;;;;;;5034881;28;20026;-67
2021/06/13 05:24:05;;;;;;;9.57;3.80;;;;;;;;;;5034851;28;20704;-67
2021/06/13 05:26:31;;;;;;;10.63;4.75;;;;;;;;;;5034438;28;20013;-68
2021/06/13 05:28:57;;;;;;;9.27;3.63;;;;;;;;;;5034952;28;20026;-67
2021/06/13 05:31:26;;;;;;;10.90;4.22;;;;;;;;;;5023051;28;20037;-67
2021/06/13 05:33:52;;;;;;;11.48;3.55;;;;;;;;;;5030632;28;20068;-66
2021/06/13 05:36:19;;;;;;;8.73;3.67;;;;;;;;;;5034166;28;20025;-67
2021/06/13 05:38:45;;;;;;;10.68;3.80;;;;;;;;;;5034945;28;20061;-68
2021/06/13 05:41:11;;;;;;;9.18;3.58;;;;;;;;;;5034758;28;20026;-67
2021/06/13 05:43:38;;;;;;;7.32;3.00;;;;;;;;;;5034696;28;20112;-66
2021/06/13 05:46:04;;;;;;;10.10;3.40;;;;;;;;;;5032867;28;20022;-66
2021/06/13 05:48:30;;;;;;;7.60;3.20;;;;;;;;;;5034765;28;20548;-67
2021/06/13 05:50:56;;;;;;;10.35;3.08;;;;;;;;;;5034367;28;20083;-68
2021/06/13 05:53:22;;;;;;;10.98;3.25;;;;;;;;;;5034331;28;20062;-68
2021/06/13 05:55:48;;;;;;;8.23;2.80;;;;;;;;;;5034102;28;20032;-67
2021/06/13 05:58:15;;;;;;;7.22;2.92;;;;;;;;;;5033870;28;20029;-68
2021/06/13 06:00:41;;;;;;;7.35;2.60;;;;;;;;;;5034080;28;20025;-68
2021/06/13 06:03:07;;;;;;;8.20;2.72;;;;;;;;;;5034303;28;20128;-67
2021/06/13 06:05:34;;;;;;;13.23;3.33;;;;;;;;;;5034144;28;20360;-67
2021/06/13 06:08:00;;;;;;;10.48;2.75;;;;;;;;;;5033273;28;20387;-67
2021/06/13 06:10:27;;;;;;;9.38;3.13;;;;;;;;;;5023563;28;20570;-67
2021/06/13 06:12:54;;;;;;;8.73;3.00;;;;;;;;;;5030883;28;20033;-68
2021/06/13 06:15:21;;;;;;;9.07;3.08;;;;;;;;;;5033372;28;20026;-68
2021/06/13 06:17:47;;;;;;;15.77;2.80;;;;;;;;;;5030243;28;20028;-68
2021/06/13 06:20:14;;;;;;;9.52;2.88;;;;;;;;;;5031907;28;20056;-68
2021/06/13 06:22:40;;;;;;;5.60;2.83;;;;;;;;;;5033445;28;20083;-68
2021/06/13 06:25:07;;;;;;;11.38;2.78;;;;;;;;;;5036973;28;20100;-68
2021/06/13 06:27:33;;;;;;;8.32;3.10;;;;;;;;;;5040258;28;20029;-69
2021/06/13 06:29:59;;;;;;;6.72;2.38;;;;;;;;;;5032953;28;20116;-68
2021/06/13 06:32:25;;;;;;;84.15;58.28;;;;;;;;;;5017756;28;20026;-68
2021/06/13 06:34:51;;;;;;;9.20;3.40;;;;;;;;;;5033603;28;20033;-67
2021/06/13 06:37:17;;;;;;;8.63;2.88;;;;;;;;;;5028346;28;20034;-69
2021/06/13 06:39:43;;;;;;;4.55;2.55;;;;;;;;;;5031714;28;20098;-67
2021/06/13 06:42:09;;;;;;;7.40;2.83;;;;;;;;;;5033142;28;20030;-67
2021/06/13 06:44:35;;;;;;;7.18;2.38;;;;;;;;;;5032195;28;20010;-68
2021/06/13 06:47:04;;;;;;;7.28;2.35;;;;;;;;;;5033389;28;20029;-67
2021/06/13 06:49:30;;;;;;;17.63;7.45;;;;;;;;;;5033491;28;20026;-67
2021/06/13 06:51:57;;;;;;;10.02;2.90;;;;;;;;;;5033723;28;20076;-68
2021/06/13 06:54:23;;;;;;;6.93;2.58;;;;;;;;;;5016819;28;20021;-68
2021/06/13 06:56:49;;;;;;;8.05;2.63;;;;;;;;;;5031443;28;20468;-68
2021/06/13 06:59:15;;;;;;;6.35;2.20;;;;;;;;;;5033417;28;20079;-68
2021/06/13 07:01:41;;;;;;;10.15;2.65;;;;;;;;;;5032111;28;20586;-68
2021/06/13 07:04:07;;;;;;;9.07;2.80;;;;;;;;;;5032937;28;20119;-67
2021/06/13 07:06:35;;;;;;;8.32;2.80;;;;;;;;;;5032781;28;20021;-68
2021/06/13 07:09:01;;;;;;;5.75;2.63;;;;;;;;;;5023962;28;20029;-68
2021/06/13 07:11:27;;;;;;;10.90;3.28;;;;;;;;;;5025655;28;20454;-67
2021/06/13 07:13:53;;;;;;;10.52;2.55;;;;;;;;;;5032967;28;20037;-67
2021/06/13 07:16:19;;;;;;;12.30;3.53;;;;;;;;;;5032399;28;20029;-67
2021/06/13 07:18:45;;;;;;;10.50;3.53;;;;;;;;;;5032763;28;20041;-66
2021/06/13 07:21:11;;;;;;;7.30;2.80;;;;;;;;;;5031896;28;20475;-66
2021/06/13 07:23:37;;;;;;;14.02;2.92;;;;;;;;;;5030492;28;20018;-67
2021/06/13 07:26:03;;;;;;;7.25;3.40;;;;;;;;;;5032049;28;20021;-66
2021/06/13 07:28:32;;;;;;;9.15;3.17;;;;;;;;;;5032374;28;20387;-67
2021/06/13 07:30:58;;;;;;;10.45;2.90;;;;;;;;;;5025136;28;20033;-69
2021/06/13 07:33:25;;;;;;;14.57;3.58;;;;;;;;;;5017689;28;20080;-67
2021/06/13 07:35:51;;;;;;;7.07;2.67;;;;;;;;;;5030712;28;20029;-68
2021/06/13 07:38:17;;;;;;;10.00;3.35;;;;;;;;;;5031646;28;20025;-67
2021/06/13 07:40:43;;;;;;;7.65;2.63;;;;;;;;;;5031292;28;20083;-67
2021/06/13 07:43:09;;;;;;;14.88;3.72;;;;;;;;;;5027448;28;20116;-68
2021/06/13 07:45:35;;;;;;;10.05;3.28;;;;;;;;;;5027104;28;20546;-66
2021/06/13 07:48:01;;;;;;;14.02;4.00;;;;;;;;;;5031960;28;20021;-67
2021/06/13 07:50:30;;;;;;;10.35;3.35;;;;;;;;;;5030628;28;20037;-68
2021/06/13 07:52:55;;;;;;;9.63;3.17;;;;;;;;;;5029349;28;20037;-66
2021/06/13 07:55:21;;;;;;;10.85;3.47;;;;;;;;;;5026723;28;20021;-67
2021/06/13 07:57:48;;;;;;;14.13;3.15;;;;;;;;;;5029821;28;20033;-69
2021/06/13 08:00:18;;;;;;;7.63;2.92;;;;;;;;;;5038338;28;20021;-69
2021/06/13 08:02:44;;;;;;;10.18;2.53;;;;;;;;;;5044812;28;20028;-69
2021/06/13 08:05:12;;;;;;;9.27;2.97;;;;;;;;;;5031163;28;20030;-69
2021/06/13 08:07:38;;;;;;;7.50;3.00;;;;;;;;;;5031658;28;20036;-67
2021/06/13 08:10:05;;;;;;;7.40;2.80;;;;;;;;;;5037179;28;20022;-67
2021/06/13 08:12:31;;;;;;;7.07;2.53;;;;;;;;;;5037795;28;20037;-69
2021/06/13 08:14:57;;;;;;;11.10;2.92;;;;;;;;;;5033304;28;20045;-67
2021/06/13 08:17:23;;;;;;;5.30;2.65;;;;;;;;;;5033531;28;20048;-67
2021/06/13 08:19:52;;;;;;;8.80;2.75;;;;;;;;;;5031943;28;20041;-67
2021/06/13 08:22:18;;;;;;;10.10;2.63;;;;;;;;;;5035674;28;20025;-69
2021/06/13 08:24:45;;;;;;;7.15;2.95;;;;;;;;;;5033465;28;20095;-67
2021/06/13 08:27:10;;;;;;;7.05;2.83;;;;;;;;;;5029997;28;20033;-68
2021/06/13 08:29:39;;;;;;;11.45;3.00;;;;;;;;;;5034559;28;20033;-68
2021/06/13 08:32:05;;;;;;;7.43;2.88;;;;;;;;;;5029620;28;20029;-69
2021/06/13 08:34:31;;;;;;;12.45;3.03;;;;;;;;;;5031138;28;20029;-66
2021/06/13 08:36:57;;;;;;;7.40;3.05;;;;;;;;;;5030670;28;20033;-69
2021/06/13 08:39:22;;;;;;;8.80;3.15;;;;;;;;;;5031303;28;20151;-68
2021/06/13 08:41:48;;;;;;;14.93;5.97;;;;;;;;;;5031365;28;20022;-68
2021/06/13 08:44:15;;;;;;;75.05;43.63;;;;;;;;;;5031486;28;20032;-68
2021/06/13 08:46:45;;;;;;;11.73;3.97;;;;;;;;;;5031030;28;20028;-67
2021/06/13 08:49:11;;;;;;;8.23;3.30;;;;;;;;;;5031760;28;20037;-70
2021/06/13 08:51:38;;;;;;;9.27;3.17;;;;;;;;;;5026468;28;20025;-72
2021/06/13 08:54:04;;;;;;;8.75;2.90;;;;;;;;;;5018075;28;20423;-68
2021/06/13 08:56:30;;;;;;;7.28;3.53;;;;;;;;;;5016713;28;20087;-69
2021/06/13 08:58:56;;;;;;;7.32;3.03;;;;;;;;;;5035423;28;20033;-71
2021/06/13 09:01:22;;;;;;;12.15;3.45;;;;;;;;;;5035413;28;20097;-70
2021/06/13 09:03:48;;;;;;;8.00;3.63;;;;;;;;;;5035335;28;20021;-66
2021/06/13 09:06:14;;;;;;;8.30;3.08;;;;;;;;;;5034970;28;20029;-67
2021/06/13 09:08:41;;;;;;;9.05;3.28;;;;;;;;;;5035179;28;20025;-68
2021/06/13 09:11:08;;;;;;;6.85;2.92;;;;;;;;;;5035029;28;20022;-69
2021/06/13 09:13:37;;;;;;;9.02;2.95;;;;;;;;;;5035247;28;20476;-68
2021/06/13 09:16:03;;;;;;;10.45;3.53;;;;;;;;;;5034812;28;20021;-70
2021/06/13 09:18:35;;;;;;;10.80;3.00;;;;;;;;;;5035089;28;20461;-69
2021/06/13 09:21:02;;;;;;;9.55;2.80;;;;;;;;;;5035094;28;20021;-69
2021/06/13 09:23:30;;;;;;;10.95;3.00;;;;;;;;;;5034739;28;20026;-70
2021/06/13 09:25:57;;;;;;;8.18;3.53;;;;;;;;;;5035275;28;20026;-65
2021/06/13 09:28:26;;;;;;;10.57;3.00;;;;;;;;;;5034672;28;20045;-68
2021/06/13 09:30:52;;;;;;;8.65;3.15;;;;;;;;;;5033395;28;20051;-66
2021/06/13 09:33:19;;;;;;;8.18;3.45;;;;;;;;;;5032891;28;20107;-68
2021/06/13 09:35:46;;;;;;;11.90;3.15;;;;;;;;;;5033148;28;20037;-69
2021/06/13 09:38:17;;;;;;;11.10;3.55;;;;;;;;;;5033834;28;20017;-67
2021/06/13 09:40:57;;;;;;;5.57;2.70;;;;;;;;;;5034638;28;20100;-67
2021/06/13 09:43:25;;;;;;;7.00;2.90;;;;;;;;;;5033258;28;20499;-67
2021/06/13 09:45:52;;;;;;;9.93;3.20;;;;;;;;;;5034538;28;20022;-66
2021/06/13 09:48:18;;;;;;;12.02;3.20;;;;;;;;;;5034193;28;20112;-66
2021/06/13 09:50:46;;;;;;;11.63;3.15;;;;;;;;;;5029788;28;20029;-64
2021/06/13 09:53:32;;;;;;;6.63;2.60;;;;;;;;;;5015186;28;20052;-65
2021/06/13 09:56:11;;;;;;;6.47;2.95;;;;;;;;;;5021857;28;20076;-69
2021/06/13 09:58:46;;;;;;;5.30;2.70;;;;;;;;;;5033233;28;20026;-68
2021/06/13 10:01:12;;;;;;;8.40;3.20;;;;;;;;;;5034427;28;20026;-69
2021/06/13 10:03:39;;;;;;;6.75;3.17;;;;;;;;;;5034439;28;20032;-69
2021/06/13 10:06:06;;;;;;;13.30;5.22;;;;;;;;;;5032173;28;20036;-69
2021/06/13 10:08:32;;;;;;;8.80;3.65;;;;;;;;;;5034189;28;20064;-69
2021/06/13 10:10:58;;;;;;;10.23;3.00;;;;;;;;;;5034171;28;20029;-69
2021/06/13 10:13:41;;;;;;;13.90;5.72;;;;;;;;;;5033885;28;20079;-68
2021/06/13 10:16:08;;;;;;;7.35;3.10;;;;;;;;;;5027399;28;20026;-69
2021/06/13 10:18:34;;;;;;;8.35;3.05;;;;;;;;;;5033782;28;20437;-67
2021/06/13 10:21:14;;;;;;;10.75;3.08;;;;;;;;;;5033790;28;21735;-68
2021/06/13 10:23:45;;;;;;;12.98;3.38;;;;;;;;;;5033539;28;20406;-68
2021/06/13 10:26:11;;;;;;;4.40;2.50;;;;;;;;;;5033853;28;20546;-68
2021/06/13 10:28:37;;;;;;;6.10;2.83;;;;;;;;;;5033713;28;20065;-68
2021/06/13 10:31:03;;;;;;;6.35;2.35;;;;;;;;;;5022933;28;20057;-69
2021/06/13 10:33:30;;;;;;;10.45;2.75;;;;;;;;;;5013883;28;20127;-69
2021/06/13 10:36:01;;;;;;;5.57;2.40;;;;;;;;;;5017850;28;20135;-68
2021/06/13 10:38:36;;;;;;;4.43;2.10;;;;;;;;;;5031688;28;20116;-68
2021/06/13 10:41:03;;;;;;;9.85;2.85;;;;;;;;;;5030863;28;20434;-67
2021/06/13 10:43:30;;;;;;;6.80;2.67;;;;;;;;;;5022683;28;20026;-67
2021/06/13 10:46:06;;;;;;;7.57;2.65;;;;;;;;;;5010713;28;20559;-66
2021/06/13 10:48:37;;;;;;;7.53;2.20;;;;;;;;;;5025209;28;20511;-67
2021/06/13 10:51:22;;;;;;;6.82;3.08;;;;;;;;;;5031211;28;20131;-67
2021/06/13 10:53:48;;;;;;;12.90;5.18;;;;;;;;;;5047603;28;20392;-67
2021/06/13 10:56:23;;;;;;;6.88;2.72;;;;;;;;;;5052150;28;20027;-68
2021/06/13 10:58:52;;;;;;;6.80;2.75;;;;;;;;;;5034185;28;20375;-68
2021/06/13 11:01:24;;;;;;;5.47;2.60;;;;;;;;;;5032868;28;20503;-67
2021/06/13 11:04:17;;;;;;;5.43;2.70;;;;;;;;;;5033354;28;20025;-67
2021/06/13 11:06:48;;;;;;;8.63;3.15;;;;;;;;;;5029042;28;20036;-68
2021/06/13 11:09:16;;;;;;;12.45;4.03;;;;;;;;;;5032470;28;20440;-68
2021/06/13 11:11:44;;;;;;;10.15;4.75;;;;;;;;;;5023845;28;20033;-68
2021/06/13 11:14:24;;;;;;;10.52;5.38;;;;;;;;;;5013302;28;20030;-68
2021/06/13 11:16:50;;;;;;;10.32;4.60;;;;;;;;;;5024024;28;20038;-68
2021/06/13 11:19:26;;;;;;;8.60;2.67;;;;;;;;;;5013469;28;20030;-68
2021/06/13 11:22:10;;;;;;;7.45;2.40;;;;;;;;;;5023930;28;20137;-67
2021/06/13 11:24:50;;;;;;;7.70;2.78;;;;;;;;;;5032515;28;20028;-68
2021/06/13 11:27:16;;;;;;;9.57;3.30;;;;;;;;;;5031085;28;20112;-67
2021/06/13 11:29:59;;;;;;;9.38;2.83;;;;;;;;;;5032407;28;20033;-68
2021/06/13 11:32:44;;;;;;;6.93;2.42;;;;;;;;;;5022878;28;20025;-67
2021/06/13 11:35:29;;;;;;;8.90;3.42;;;;;;;;;;5032880;28;20379;-68
2021/06/13 11:38:11;;;;;;;9.13;3.08;;;;;;;;;;5027751;28;20052;-68
2021/06/13 11:40:38;;;;;;;14.57;4.93;;;;;;;;;;5016214;28;20029;-68
2021/06/13 11:43:09;;;;;;;8.27;2.78;;;;;;;;;;5011486;28;20472;-67
2021/06/13 11:45:35;;;;;;;10.10;3.10;;;;;;;;;;5014326;28;20025;-68
2021/06/13 11:48:30;;;;;;;6.60;2.92;;;;;;;;;;5013435;28;20033;-68
2021/06/13 11:51:09;;;;;;;12.27;2.50;;;;;;;;;;5003874;28;20034;-67
2021/06/13 11:53:51;;;;;;;8.27;3.15;;;;;;;;;;5013384;28;20740;-67
2021/06/13 11:56:35;;;;;;;7.13;2.88;;;;;;;;;;5023159;28;20026;-68
2021/06/13 11:59:27;;;;;;;7.93;2.30;;;;;;;;;;5012498;28;20025;-69
2021/06/13 12:02:01;;;;;;;6.00;2.63;;;;;;;;;;5010628;28;20034;-68
2021/06/13 12:04:28;;;;;;;5.20;2.50;;;;;;;;;;5012263;28;20106;-69
2021/06/13 12:06:54;;;;;;;7.05;2.60;;;;;;;;;;5012001;28;20341;-68
2021/06/13 12:09:21;;;;;;;8.30;3.10;;;;;;;;;;5039165;28;20044;-68
2021/06/13 12:11:57;;;;;;;10.68;3.30;;;;;;;;;;5035419;28;20033;-68
2021/06/13 12:14:36;;;;;;;6.88;2.45;;;;;;;;;;5035344;28;20029;-68
2021/06/13 12:17:07;;;;;;;8.23;2.50;;;;;;;;;;5035527;28;20030;-69
2021/06/13 12:19:35;;;;;;;8.90;3.38;;;;;;;;;;5036490;28;20071;-68
2021/06/13 12:22:29;;;;;;;6.25;2.28;;;;;;;;;;5032991;28;20018;-68
2021/06/13 12:27:29;;;;;;;6.78;2.83;;;;;;;;;;5031377;28;20475;-68
2021/06/13 12:29:56;;;;;;;10.82;2.80;;;;;;;;;;5031543;28;20582;-68
2021/06/13 12:32:23;;;;;;;6.80;2.33;;;;;;;;;;5030495;28;20100;-67
2021/06/13 12:34:53;;;;;;;6.13;2.63;;;;;;;;;;5031714;28;20407;-71
2021/06/13 12:37:23;;;;;;;9.45;2.97;;;;;;;;;;5031086;28;20037;-71
2021/06/13 12:39:59;;;;;;;11.57;3.00;;;;;;;;;;5031522;28;20104;-71
2021/06/13 12:42:26;;;;;;;7.97;3.30;;;;;;;;;;5030412;28;20428;-70
2021/06/13 12:45:03;;;;;;;8.18;2.78;;;;;;;;;;5031368;28;20033;-69
2021/06/13 12:47:29;;;;;;;8.18;3.00;;;;;;;;;;5031182;28;20079;-69
2021/06/13 12:49:57;;;;;;;11.68;3.22;;;;;;;;;;5031400;28;20052;-69
2021/06/13 12:52:22;;;;;;;10.23;3.28;;;;;;;;;;5031398;28;20391;-69
2021/06/13 12:55:02;;;;;;;10.10;3.45;;;;;;;;;;5031360;28;20034;-65
2021/06/13 12:57:29;;;;;;;8.90;3.13;;;;;;;;;;5030725;28;20025;-65
2021/06/13 12:59:55;;;;;;;10.02;3.70;;;;;;;;;;5031023;28;20064;-64
2021/06/13 13:02:22;;;;;;;9.93;4.28;;;;;;;;;;5031304;28;20029;-65
2021/06/13 13:04:58;;;;;;;6.47;2.90;;;;;;;;;;5031139;28;20024;-65
2021/06/13 13:07:28;;;;;;;8.10;3.38;;;;;;;;;;5030031;28;20040;-65
2021/06/13 13:10:12;;;;;;;7.60;3.53;;;;;;;;;;5031127;28;20030;-65
2021/06/13 13:12:40;;;;;;;8.90;3.00;;;;;;;;;;5031004;28;20037;-65
2021/06/13 13:15:09;;;;;;;10.68;3.05;;;;;;;;;;5027276;28;20025;-65
2021/06/13 13:17:38;;;;;;;8.90;3.20;;;;;;;;;;5034442;28;20036;-65
2021/06/13 13:20:30;;;;;;;6.75;2.97;;;;;;;;;;5051097;28;20616;-65
2021/06/13 13:22:56;;;;;;;5.55;2.83;;;;;;;;;;5044287;28;20033;-70
2021/06/13 13:25:24;;;;;;;6.70;2.67;;;;;;;;;;5051050;28;20049;-70
2021/06/13 13:27:51;;;;;;;11.77;5.32;;;;;;;;;;5049279;28;20402;-68
2021/06/13 13:30:28;;;;;;;11.52;5.07;;;;;;;;;;5029675;28;20029;-71
2021/06/13 13:32:56;;;;;;;10.20;4.68;;;;;;;;;;5031006;28;20025;-67
2021/06/13 13:35:32;;;;;;;9.13;4.03;;;;;;;;;;5030665;28;20022;-70
2021/06/13 13:37:59;;;;;;;17.23;8.23;;;;;;;;;;5011398;28;20108;-71
2021/06/13 13:40:25;;;;;;;18.17;8.85;;;;;;;;;;5014550;28;20424;-71
2021/06/13 13:42:58;;;;;;;31.13;20.92;;;;;;;;;;5014970;28;20395;-72
2021/06/13 13:45:25;;;;;;;66.97;39.00;;;;;;;;;;5014217;28;20048;-71
2021/06/13 13:47:51;;;;;;;113.45;75.97;;;;;;;;;;5014301;28;20056;-69
2021/06/13 13:50:17;;;;;;;16.63;8.23;;;;;;;;;;5014930;28;20030;-68
2021/06/13 13:52:43;;;;;;;91.30;56.20;;;;;;;;;;5013801;28;20026;-70
2021/06/13 13:55:10;;;;;;;52.78;31.05;;;;;;;;;;5014739;28;20515;-70
2021/06/13 13:57:43;;;;;;;49.70;29.23;;;;;;;;;;5014208;28;20503;-69
2021/06/13 14:00:09;;;;;;;9.90;4.50;;;;;;;;;;5013326;28;20507;-68
2021/06/13 14:02:35;;;;;;;11.00;4.55;;;;;;;;;;5014966;28;20025;-67
2021/06/13 14:05:01;;;;;;;18.65;6.45;;;;;;;;;;5014761;28;20101;-68
2021/06/13 14:07:30;;;;;;;12.38;6.00;;;;;;;;;;5018466;28;20498;-71
2021/06/13 14:09:56;;;;;;;10.65;5.90;;;;;;;;;;5034193;28;20021;-69
2021/06/13 14:12:22;;;;;;;19.30;9.88;;;;;;;;;;5033897;28;20416;-69
2021/06/13 14:14:50;;;;;;;43.95;23.85;;;;;;;;;;5033772;28;20037;-73
2021/06/13 14:17:16;;;;;;;16.33;11.23;;;;;;;;;;5032081;28;20029;-72
2021/06/13 14:19:42;;;;;;;15.38;8.43;;;;;;;;;;5034052;28;20018;-71
2021/06/13 14:22:08;;;;;;;9.93;5.25;;;;;;;;;;5033677;28;20030;-71
2021/06/13 14:24:34;;;;;;;19.05;10.43;;;;;;;;;;5032451;28;20025;-70
2021/06/13 14:27:00;;;;;;;14.48;8.35;;;;;;;;;;5033226;28;20105;-67
2021/06/13 14:29:28;;;;;;;11.13;5.25;;;;;;;;;;5033110;28;20018;-66
2021/06/13 14:31:54;;;;;;;12.00;6.53;;;;;;;;;;5022934;28;20052;-66
2021/06/13 14:34:20;;;;;;;29.80;16.58;;;;;;;;;;5027736;28;20029;-65
2021/06/13 14:36:47;;;;;;;16.95;6.95;;;;;;;;;;5032663;28;20457;-66
2021/06/13 14:39:13;;;;;;;28.15;16.70;;;;;;;;;;5032051;28;20029;-67
2021/06/13 14:41:38;;;;;;;15.63;7.78;;;;;;;;;;5033807;28;20025;-67
2021/06/13 14:44:05;;;;;;;17.02;7.88;;;;;;;;;;5033849;28;20033;-66
2021/06/13 14:46:32;;;;;;;18.83;8.38;;;;;;;;;;5033526;28;20105;-67